createdAt,value
2022-09-14T00:04:29.736Z,26.35
2022-09-14T00:19:31.683Z,25.968
2022-09-14T00:34:33.571Z,25.983
2022-09-14T00:49:35.470Z,26.122
2022-09-14T01:04:37.416Z,26.215
2022-09-14T01:19:39.402Z,26.44
2022-09-14T01:34:41.319Z,25.754
2022-09-14T01:49:43.268Z,26.458
2022-09-14T02:04:45.218Z,26.631
2022-09-14T02:19:47.112Z,25.654
2022-09-14T02:34:49.014Z,26.318
2022-09-14T02:49:50.990Z,27.625
2022-09-14T03:04:52.866Z,27.26
2022-09-14T03:19:54.795Z,26.046
2022-09-14T03:34:56.737Z,25.919
2022-09-14T03:49:58.626Z,25.488
2022-09-14T04:05:00.583Z,25.408
2022-09-14T04:20:02.524Z,25.536
2022-09-14T04:35:05.130Z,25.935
2022-09-14T04:50:08.654Z,26.009
2022-09-14T05:05:10.554Z,26.52
2022-09-14T05:20:12.446Z,25.859
2022-09-14T05:35:14.416Z,25.686
2022-09-14T05:50:16.321Z,25.868
2022-09-14T06:05:18.346Z,25.118
2022-09-14T06:20:20.293Z,25.653
2022-09-14T06:35:22.284Z,25.627
2022-09-14T06:50:24.215Z,25.814
2022-09-14T07:05:26.138Z,25.683
2022-09-14T07:20:28.051Z,26.264
2022-09-14T07:35:30.954Z,26.136
2022-09-14T07:50:32.875Z,26.013
2022-09-14T08:05:34.767Z,25.973
2022-09-14T08:20:36.676Z,25.955
2022-09-14T08:35:57.015Z,26.132
2022-09-14T08:50:59.971Z,26.002
2022-09-14T09:06:02.028Z,27.208
2022-09-14T09:21:03.931Z,26.732
2022-09-14T09:36:05.832Z,26.577
2022-09-14T09:51:07.744Z,27.052
2022-09-14T10:06:09.704Z,26.709
2022-09-14T10:21:11.680Z,24.952
2022-09-14T10:36:13.607Z,25.072
2022-09-14T10:51:15.499Z,25.83
2022-09-14T11:06:17.476Z,26.377
2022-09-14T11:21:19.395Z,26.334
2022-09-14T11:36:21.323Z,26.963
2022-09-14T11:51:23.225Z,27.796
2022-09-14T12:06:25.192Z,28.697
2022-09-14T12:21:27.087Z,28.331
2022-09-14T12:36:29.011Z,28.945
2022-09-14T12:51:30.965Z,29.727
2022-09-14T13:06:32.941Z,29.119
2022-09-14T13:21:34.858Z,29.155
2022-09-14T13:36:36.791Z,29.892
2022-09-14T13:51:38.756Z,29.707
2022-09-14T14:06:40.705Z,30.237
2022-09-14T14:21:42.656Z,30.145
2022-09-14T14:36:44.559Z,30.252
2022-09-14T14:51:46.487Z,30.682
2022-09-14T15:06:48.424Z,30.564
2022-09-14T15:21:50.363Z,30.391
2022-09-14T15:36:52.272Z,30.661
2022-09-14T15:51:54.177Z,30.565
2022-09-14T16:06:56.063Z,30.732
2022-09-14T16:21:58.069Z,29.52
2022-09-14T16:37:00.117Z,29.105
2022-09-14T16:52:02.019Z,29.097
2022-09-14T17:07:04.013Z,29.08
2022-09-14T17:22:05.930Z,28.98
2022-09-14T17:37:07.887Z,29.159
2022-09-14T17:52:09.820Z,28.595
2022-09-14T18:07:11.754Z,28.396
2022-09-14T18:22:13.666Z,28.479
2022-09-14T18:37:15.597Z,28.387
2022-09-14T18:52:17.520Z,28.453
2022-09-14T19:07:19.430Z,28.413
2022-09-14T19:22:21.335Z,29.158
2022-09-14T19:37:23.261Z,28.149
2022-09-14T19:52:25.179Z,27.534
2022-09-14T20:07:27.121Z,27.114
2022-09-14T20:22:29.102Z,27.337
2022-09-14T20:37:31.041Z,28.269
2022-09-14T20:52:32.951Z,27.327
2022-09-14T21:07:34.847Z,27.112
2022-09-14T21:22:36.926Z,27.815
2022-09-14T21:37:38.817Z,29
2022-09-14T21:52:40.779Z,30.668
2022-09-14T22:07:42.744Z,30.831
2022-09-14T22:22:44.678Z,30.488
2022-09-14T22:37:46.590Z,31.417
2022-09-14T22:52:48.535Z,30.836
2022-09-14T23:07:50.618Z,30.861
2022-09-14T23:22:52.593Z,30.202
2022-09-14T23:37:54.510Z,30.508
2022-09-14T23:52:56.413Z,30.314
